sensor_id;sensor_type;location;lat;lon;timestamp;P1;durP1;ratioP1;P2;durP2;ratioP2
18072;SDS011;9161;47.348;9.648;2022-08-19T00:04:16;9.80;;;5.33;;
18072;SDS011;9161;47.348;9.648;2022-08-19T00:09:02;8.37;;;5.20;;
18072;SDS011;9161;47.348;9.648;2022-08-19T00:13:48;6.70;;;4.63;;
18072;SDS011;9161;47.348;9.648;2022-08-19T00:18:32;7.33;;;5.47;;
18072;SDS011;9161;47.348;9.648;2022-08-19T00:23:16;9.80;;;6.53;;
18072;SDS011;9161;47.348;9.648;2022-08-19T00:28:00;9.90;;;7.17;;
18072;SDS011;9161;47.348;9.648;2022-08-19T00:32:45;8.00;;;5.73;;
18072;SDS011;9161;47.348;9.648;2022-08-19T00:37:29;8.17;;;5.27;;
18072;SDS011;9161;47.348;9.648;2022-08-19T00:42:14;6.40;;;5.57;;
18072;SDS011;9161;47.348;9.648;2022-08-19T00:46:58;12.63;;;7.07;;
18072;SDS011;9161;47.348;9.648;2022-08-19T00:51:44;13.83;;;8.87;;
18072;SDS011;9161;47.348;9.648;2022-08-19T00:56:29;16.30;;;9.97;;
18072;SDS011;9161;47.348;9.648;2022-08-19T01:01:13;16.57;;;10.03;;
18072;SDS011;9161;47.348;9.648;2022-08-19T01:05:57;25.00;;;13.43;;
18072;SDS011;9161;47.348;9.648;2022-08-19T01:10:43;24.77;;;14.87;;
18072;SDS011;9161;47.348;9.648;2022-08-19T01:15:30;26.40;;;16.00;;
18072;SDS011;9161;47.348;9.648;2022-08-19T01:20:16;28.00;;;16.80;;
18072;SDS011;9161;47.348;9.648;2022-08-19T01:25:03;25.07;;;14.57;;
18072;SDS011;9161;47.348;9.648;2022-08-19T01:29:55;24.30;;;14.13;;
18072;SDS011;9161;47.348;9.648;2022-08-19T01:34:39;29.07;;;16.33;;
18072;SDS011;9161;47.348;9.648;2022-08-19T01:39:24;29.67;;;16.33;;
18072;SDS011;9161;47.348;9.648;2022-08-19T01:44:09;29.40;;;17.20;;
18072;SDS011;9161;47.348;9.648;2022-08-19T01:48:59;25.37;;;15.10;;
18072;SDS011;9161;47.348;9.648;2022-08-19T01:53:45;26.83;;;16.57;;
18072;SDS011;9161;47.348;9.648;2022-08-19T01:58:32;23.50;;;14.90;;
18072;SDS011;9161;47.348;9.648;2022-08-19T02:03:21;19.77;;;13.57;;
18072;SDS011;9161;47.348;9.648;2022-08-19T02:08:05;23.87;;;14.73;;
18072;SDS011;9161;47.348;9.648;2022-08-19T02:12:49;21.90;;;14.20;;
18072;SDS011;9161;47.348;9.648;2022-08-19T02:17:33;20.40;;;14.67;;
18072;SDS011;9161;47.348;9.648;2022-08-19T02:22:18;23.87;;;15.03;;
18072;SDS011;9161;47.348;9.648;2022-08-19T02:27:02;28.47;;;16.77;;
18072;SDS011;9161;47.348;9.648;2022-08-19T02:31:46;23.10;;;14.23;;
18072;SDS011;9161;47.348;9.648;2022-08-19T02:36:30;22.60;;;14.37;;
18072;SDS011;9161;47.348;9.648;2022-08-19T02:41:16;31.00;;;17.13;;
18072;SDS011;9161;47.348;9.648;2022-08-19T02:46:10;27.37;;;16.93;;
18072;SDS011;9161;47.348;9.648;2022-08-19T02:50:55;26.13;;;16.07;;
18072;SDS011;9161;47.348;9.648;2022-08-19T02:55:42;22.43;;;14.23;;
18072;SDS011;9161;47.348;9.648;2022-08-19T03:00:28;31.37;;;18.77;;
18072;SDS011;9161;47.348;9.648;2022-08-19T03:05:14;25.37;;;15.60;;
18072;SDS011;9161;47.348;9.648;2022-08-19T03:09:57;23.73;;;13.33;;
18072;SDS011;9161;47.348;9.648;2022-08-19T03:14:41;17.37;;;11.50;;
18072;SDS011;9161;47.348;9.648;2022-08-19T03:19:26;14.97;;;10.30;;
18072;SDS011;9161;47.348;9.648;2022-08-19T03:24:10;16.60;;;11.30;;
18072;SDS011;9161;47.348;9.648;2022-08-19T03:28:54;15.50;;;11.10;;
18072;SDS011;9161;47.348;9.648;2022-08-19T03:33:39;23.40;;;14.33;;
18072;SDS011;9161;47.348;9.648;2022-08-19T03:38:27;26.77;;;16.00;;
18072;SDS011;9161;47.348;9.648;2022-08-19T03:43:11;26.67;;;15.87;;
18072;SDS011;9161;47.348;9.648;2022-08-19T03:47:55;20.40;;;14.03;;
18072;SDS011;9161;47.348;9.648;2022-08-19T03:52:39;23.33;;;14.27;;
18072;SDS011;9161;47.348;9.648;2022-08-19T03:57:28;22.60;;;14.10;;
18072;SDS011;9161;47.348;9.648;2022-08-19T04:02:12;23.87;;;15.13;;
18072;SDS011;9161;47.348;9.648;2022-08-19T04:06:56;30.00;;;18.13;;
18072;SDS011;9161;47.348;9.648;2022-08-19T04:11:41;30.17;;;17.63;;
18072;SDS011;9161;47.348;9.648;2022-08-19T04:16:28;29.37;;;19.00;;
18072;SDS011;9161;47.348;9.648;2022-08-19T04:21:16;21.93;;;15.17;;
18072;SDS011;9161;47.348;9.648;2022-08-19T04:26:00;21.93;;;14.17;;
18072;SDS011;9161;47.348;9.648;2022-08-19T04:30:50;22.80;;;15.60;;
18072;SDS011;9161;47.348;9.648;2022-08-19T04:35:38;23.00;;;15.43;;
18072;SDS011;9161;47.348;9.648;2022-08-19T04:40:23;25.77;;;15.70;;
18072;SDS011;9161;47.348;9.648;2022-08-19T04:45:24;23.23;;;15.33;;
18072;SDS011;9161;47.348;9.648;2022-08-19T04:50:10;24.37;;;16.27;;
18072;SDS011;9161;47.348;9.648;2022-08-19T04:54:55;25.70;;;16.07;;
18072;SDS011;9161;47.348;9.648;2022-08-19T04:59:39;25.57;;;16.67;;
18072;SDS011;9161;47.348;9.648;2022-08-19T05:04:23;24.17;;;15.63;;
18072;SDS011;9161;47.348;9.648;2022-08-19T05:09:06;25.87;;;16.37;;
18072;SDS011;9161;47.348;9.648;2022-08-19T05:13:52;28.70;;;17.40;;
18072;SDS011;9161;47.348;9.648;2022-08-19T05:18:35;28.53;;;17.20;;
18072;SDS011;9161;47.348;9.648;2022-08-19T05:23:37;35.00;;;19.13;;
18072;SDS011;9161;47.348;9.648;2022-08-19T05:28:22;41.33;;;21.70;;
18072;SDS011;9161;47.348;9.648;2022-08-19T05:33:07;39.83;;;21.87;;
18072;SDS011;9161;47.348;9.648;2022-08-19T05:37:51;33.63;;;19.13;;
18072;SDS011;9161;47.348;9.648;2022-08-19T05:42:39;29.90;;;16.00;;
18072;SDS011;9161;47.348;9.648;2022-08-19T05:47:22;29.27;;;15.23;;
18072;SDS011;9161;47.348;9.648;2022-08-19T05:52:09;25.80;;;14.87;;
18072;SDS011;9161;47.348;9.648;2022-08-19T05:56:53;29.73;;;16.17;;
18072;SDS011;9161;47.348;9.648;2022-08-19T06:01:37;28.53;;;15.80;;
18072;SDS011;9161;47.348;9.648;2022-08-19T06:06:22;24.93;;;14.97;;
18072;SDS011;9161;47.348;9.648;2022-08-19T06:11:14;28.53;;;16.40;;
18072;SDS011;9161;47.348;9.648;2022-08-19T06:16:00;31.90;;;17.77;;
18072;SDS011;9161;47.348;9.648;2022-08-19T06:20:44;29.30;;;18.03;;
18072;SDS011;9161;47.348;9.648;2022-08-19T06:25:36;28.03;;;19.00;;
18072;SDS011;9161;47.348;9.648;2022-08-19T06:30:24;31.67;;;19.03;;
18072;SDS011;9161;47.348;9.648;2022-08-19T06:35:08;28.63;;;17.17;;
18072;SDS011;9161;47.348;9.648;2022-08-19T06:39:52;29.70;;;18.67;;
18072;SDS011;9161;47.348;9.648;2022-08-19T06:44:36;30.37;;;18.33;;
18072;SDS011;9161;47.348;9.648;2022-08-19T06:49:25;25.07;;;16.50;;
18072;SDS011;9161;47.348;9.648;2022-08-19T06:54:13;25.97;;;15.50;;
18072;SDS011;9161;47.348;9.648;2022-08-19T06:59:00;28.97;;;17.93;;
18072;SDS011;9161;47.348;9.648;2022-08-19T07:03:44;27.03;;;17.20;;
18072;SDS011;9161;47.348;9.648;2022-08-19T07:08:30;26.50;;;15.30;;
18072;SDS011;9161;47.348;9.648;2022-08-19T07:13:14;26.83;;;15.73;;
18072;SDS011;9161;47.348;9.648;2022-08-19T07:17:58;22.13;;;14.97;;
18072;SDS011;9161;47.348;9.648;2022-08-19T07:22:42;25.20;;;15.43;;
18072;SDS011;9161;47.348;9.648;2022-08-19T07:27:28;22.57;;;15.30;;
18072;SDS011;9161;47.348;9.648;2022-08-19T07:32:14;26.00;;;15.57;;
18072;SDS011;9161;47.348;9.648;2022-08-19T07:36:57;24.70;;;15.60;;
18072;SDS011;9161;47.348;9.648;2022-08-19T07:41:44;27.10;;;16.60;;
18072;SDS011;9161;47.348;9.648;2022-08-19T07:46:29;24.50;;;15.60;;
18072;SDS011;9161;47.348;9.648;2022-08-19T07:51:15;24.60;;;16.17;;
18072;SDS011;9161;47.348;9.648;2022-08-19T07:56:17;21.43;;;12.23;;
18072;SDS011;9161;47.348;9.648;2022-08-19T08:01:03;20.63;;;12.23;;
18072;SDS011;9161;47.348;9.648;2022-08-19T08:05:50;18.93;;;12.20;;
18072;SDS011;9161;47.348;9.648;2022-08-19T08:10:52;21.27;;;13.13;;
18072;SDS011;9161;47.348;9.648;2022-08-19T08:15:38;17.80;;;12.00;;
18072;SDS011;9161;47.348;9.648;2022-08-19T08:20:23;20.97;;;12.27;;
18072;SDS011;9161;47.348;9.648;2022-08-19T08:25:10;19.43;;;11.20;;
18072;SDS011;9161;47.348;9.648;2022-08-19T08:29:55;18.43;;;10.70;;
18072;SDS011;9161;47.348;9.648;2022-08-19T08:34:43;16.13;;;10.60;;
18072;SDS011;9161;47.348;9.648;2022-08-19T08:39:32;18.63;;;12.07;;
18072;SDS011;9161;47.348;9.648;2022-08-19T08:44:20;17.33;;;11.30;;
18072;SDS011;9161;47.348;9.648;2022-08-19T08:49:10;16.83;;;11.27;;
18072;SDS011;9161;47.348;9.648;2022-08-19T08:54:08;25.17;;;15.00;;
18072;SDS011;9161;47.348;9.648;2022-08-19T08:58:57;36.60;;;20.87;;
18072;SDS011;9161;47.348;9.648;2022-08-19T09:03:47;26.53;;;17.17;;
18072;SDS011;9161;47.348;9.648;2022-08-19T09:08:38;28.83;;;17.23;;
18072;SDS011;9161;47.348;9.648;2022-08-19T09:13:29;25.70;;;16.83;;
18072;SDS011;9161;47.348;9.648;2022-08-19T09:18:18;27.87;;;16.87;;
18072;SDS011;9161;47.348;9.648;2022-08-19T09:23:04;33.27;;;18.80;;
18072;SDS011;9161;47.348;9.648;2022-08-19T09:27:48;32.23;;;18.40;;
18072;SDS011;9161;47.348;9.648;2022-08-19T09:32:33;31.20;;;18.47;;
18072;SDS011;9161;47.348;9.648;2022-08-19T09:37:17;35.80;;;19.07;;
18072;SDS011;9161;47.348;9.648;2022-08-19T09:42:03;32.70;;;17.93;;
18072;SDS011;9161;47.348;9.648;2022-08-19T09:47:00;23.57;;;14.93;;
18072;SDS011;9161;47.348;9.648;2022-08-19T09:51:45;19.50;;;12.20;;
18072;SDS011;9161;47.348;9.648;2022-08-19T09:56:33;17.73;;;10.60;;
18072;SDS011;9161;47.348;9.648;2022-08-19T10:01:19;15.87;;;9.93;;
18072;SDS011;9161;47.348;9.648;2022-08-19T10:06:04;19.07;;;11.47;;
18072;SDS011;9161;47.348;9.648;2022-08-19T10:10:57;20.73;;;12.07;;
18072;SDS011;9161;47.348;9.648;2022-08-19T10:16:03;25.93;;;14.27;;
18072;SDS011;9161;47.348;9.648;2022-08-19T10:20:52;28.57;;;14.37;;
18072;SDS011;9161;47.348;9.648;2022-08-19T10:25:45;26.43;;;13.83;;
18072;SDS011;9161;47.348;9.648;2022-08-19T10:30:29;20.33;;;11.67;;
18072;SDS011;9161;47.348;9.648;2022-08-19T10:35:14;19.33;;;11.40;;
18072;SDS011;9161;47.348;9.648;2022-08-19T10:40:06;17.33;;;10.77;;
18072;SDS011;9161;47.348;9.648;2022-08-19T10:44:52;13.77;;;8.63;;
18072;SDS011;9161;47.348;9.648;2022-08-19T10:49:36;14.20;;;8.53;;
18072;SDS011;9161;47.348;9.648;2022-08-19T10:54:40;6.47;;;4.40;;
18072;SDS011;9161;47.348;9.648;2022-08-19T10:59:50;5.83;;;3.47;;
18072;SDS011;9161;47.348;9.648;2022-08-19T11:04:35;4.57;;;3.10;;
18072;SDS011;9161;47.348;9.648;2022-08-19T11:09:22;6.10;;;3.10;;
18072;SDS011;9161;47.348;9.648;2022-08-19T11:14:16;10.30;;;3.90;;
18072;SDS011;9161;47.348;9.648;2022-08-19T11:19:09;5.43;;;2.63;;
18072;SDS011;9161;47.348;9.648;2022-08-19T11:30:21;7.03;;;3.50;;
18072;SDS011;9161;47.348;9.648;2022-08-19T11:35:08;6.80;;;3.83;;
18072;SDS011;9161;47.348;9.648;2022-08-19T11:40:00;7.90;;;3.50;;
18072;SDS011;9161;47.348;9.648;2022-08-19T11:44:45;5.37;;;2.40;;
18072;SDS011;9161;47.348;9.648;2022-08-19T11:49:29;2.50;;;1.67;;
18072;SDS011;9161;47.348;9.648;2022-08-19T11:54:15;3.00;;;1.57;;
18072;SDS011;9161;47.348;9.648;2022-08-19T11:59:02;3.70;;;2.07;;
18072;SDS011;9161;47.348;9.648;2022-08-19T12:03:47;6.80;;;2.00;;
18072;SDS011;9161;47.348;9.648;2022-08-19T12:08:32;5.97;;;1.80;;
18072;SDS011;9161;47.348;9.648;2022-08-19T12:13:18;3.07;;;1.30;;
18072;SDS011;9161;47.348;9.648;2022-08-19T12:18:01;2.00;;;0.87;;
18072;SDS011;9161;47.348;9.648;2022-08-19T12:22:46;2.90;;;1.30;;
18072;SDS011;9161;47.348;9.648;2022-08-19T12:27:30;1.67;;;1.10;;
18072;SDS011;9161;47.348;9.648;2022-08-19T12:32:35;3.30;;;2.00;;
18072;SDS011;9161;47.348;9.648;2022-08-19T12:37:19;3.13;;;2.13;;
18072;SDS011;9161;47.348;9.648;2022-08-19T12:42:03;2.43;;;1.00;;
18072;SDS011;9161;47.348;9.648;2022-08-19T12:46:49;1.23;;;0.93;;
18072;SDS011;9161;47.348;9.648;2022-08-19T12:51:37;1.83;;;1.20;;
18072;SDS011;9161;47.348;9.648;2022-08-19T13:02:26;1.33;;;0.80;;
18072;SDS011;9161;47.348;9.648;2022-08-19T13:07:11;4.57;;;1.60;;
18072;SDS011;9161;47.348;9.648;2022-08-19T13:11:56;4.37;;;1.30;;
18072;SDS011;9161;47.348;9.648;2022-08-19T13:16:46;2.20;;;0.83;;
18072;SDS011;9161;47.348;9.648;2022-08-19T13:21:34;3.13;;;1.20;;
18072;SDS011;9161;47.348;9.648;2022-08-19T13:26:21;3.37;;;1.60;;
18072;SDS011;9161;47.348;9.648;2022-08-19T13:31:06;2.87;;;1.40;;
18072;SDS011;9161;47.348;9.648;2022-08-19T13:36:07;4.90;;;2.10;;
18072;SDS011;9161;47.348;9.648;2022-08-19T13:40:53;3.23;;;1.50;;
18072;SDS011;9161;47.348;9.648;2022-08-19T13:45:40;3.93;;;2.53;;
18072;SDS011;9161;47.348;9.648;2022-08-19T13:50:25;3.40;;;2.60;;
18072;SDS011;9161;47.348;9.648;2022-08-19T13:55:20;3.47;;;1.80;;
18072;SDS011;9161;47.348;9.648;2022-08-19T14:00:11;3.33;;;2.00;;
18072;SDS011;9161;47.348;9.648;2022-08-19T14:05:05;3.60;;;2.07;;
18072;SDS011;9161;47.348;9.648;2022-08-19T14:09:53;4.70;;;2.50;;
18072;SDS011;9161;47.348;9.648;2022-08-19T14:14:38;6.27;;;3.20;;
18072;SDS011;9161;47.348;9.648;2022-08-19T14:19:24;8.47;;;3.13;;
18072;SDS011;9161;47.348;9.648;2022-08-19T14:24:12;4.27;;;2.57;;
18072;SDS011;9161;47.348;9.648;2022-08-19T14:28:59;7.10;;;3.20;;
18072;SDS011;9161;47.348;9.648;2022-08-19T14:33:45;4.43;;;2.73;;
18072;SDS011;9161;47.348;9.648;2022-08-19T14:38:34;4.43;;;3.00;;
18072;SDS011;9161;47.348;9.648;2022-08-19T14:43:20;4.93;;;2.80;;
18072;SDS011;9161;47.348;9.648;2022-08-19T14:48:09;7.20;;;3.50;;
18072;SDS011;9161;47.348;9.648;2022-08-19T14:53:02;4.60;;;3.03;;
18072;SDS011;9161;47.348;9.648;2022-08-19T14:57:53;6.47;;;3.77;;
18072;SDS011;9161;47.348;9.648;2022-08-19T15:02:39;5.67;;;3.67;;
18072;SDS011;9161;47.348;9.648;2022-08-19T15:07:28;5.50;;;2.90;;
18072;SDS011;9161;47.348;9.648;2022-08-19T15:12:19;5.50;;;3.83;;
18072;SDS011;9161;47.348;9.648;2022-08-19T15:17:04;5.50;;;3.90;;
18072;SDS011;9161;47.348;9.648;2022-08-19T15:21:52;6.80;;;4.00;;
18072;SDS011;9161;47.348;9.648;2022-08-19T15:26:38;13.13;;;6.40;;
18072;SDS011;9161;47.348;9.648;2022-08-19T15:31:21;8.67;;;5.27;;
18072;SDS011;9161;47.348;9.648;2022-08-19T15:36:09;11.47;;;5.60;;
18072;SDS011;9161;47.348;9.648;2022-08-19T15:41:00;9.20;;;5.13;;
18072;SDS011;9161;47.348;9.648;2022-08-19T15:46:00;9.00;;;4.90;;
18072;SDS011;9161;47.348;9.648;2022-08-19T15:50:43;10.57;;;6.30;;
18072;SDS011;9161;47.348;9.648;2022-08-19T15:55:28;13.40;;;8.17;;
18072;SDS011;9161;47.348;9.648;2022-08-19T16:00:17;10.17;;;6.87;;
18072;SDS011;9161;47.348;9.648;2022-08-19T16:05:22;12.03;;;6.70;;
18072;SDS011;9161;47.348;9.648;2022-08-19T16:10:27;11.33;;;7.63;;
18072;SDS011;9161;47.348;9.648;2022-08-19T16:15:14;12.67;;;7.70;;
18072;SDS011;9161;47.348;9.648;2022-08-19T16:20:06;14.70;;;7.50;;
18072;SDS011;9161;47.348;9.648;2022-08-19T16:24:53;11.40;;;7.70;;
18072;SDS011;9161;47.348;9.648;2022-08-19T16:29:37;14.70;;;8.30;;
18072;SDS011;9161;47.348;9.648;2022-08-19T16:34:22;12.33;;;8.60;;
18072;SDS011;9161;47.348;9.648;2022-08-19T16:39:08;17.13;;;10.73;;
18072;SDS011;9161;47.348;9.648;2022-08-19T16:43:53;20.00;;;11.67;;
18072;SDS011;9161;47.348;9.648;2022-08-19T16:48:37;17.60;;;11.03;;
18072;SDS011;9161;47.348;9.648;2022-08-19T16:53:26;18.60;;;11.60;;
18072;SDS011;9161;47.348;9.648;2022-08-19T16:58:12;20.90;;;12.63;;
18072;SDS011;9161;47.348;9.648;2022-08-19T17:02:56;20.97;;;12.33;;
18072;SDS011;9161;47.348;9.648;2022-08-19T17:07:46;18.90;;;11.63;;
18072;SDS011;9161;47.348;9.648;2022-08-19T17:12:31;20.00;;;11.67;;
18072;SDS011;9161;47.348;9.648;2022-08-19T17:17:15;18.93;;;11.83;;
18072;SDS011;9161;47.348;9.648;2022-08-19T17:21:59;20.83;;;12.07;;
18072;SDS011;9161;47.348;9.648;2022-08-19T17:26:43;26.23;;;16.20;;
18072;SDS011;9161;47.348;9.648;2022-08-19T17:31:29;23.37;;;14.03;;
18072;SDS011;9161;47.348;9.648;2022-08-19T17:36:14;28.13;;;16.07;;
18072;SDS011;9161;47.348;9.648;2022-08-19T17:40:59;25.47;;;15.27;;
18072;SDS011;9161;47.348;9.648;2022-08-19T17:45:45;24.37;;;13.80;;
18072;SDS011;9161;47.348;9.648;2022-08-19T17:50:31;22.30;;;13.50;;
18072;SDS011;9161;47.348;9.648;2022-08-19T17:55:15;28.87;;;17.37;;
18072;SDS011;9161;47.348;9.648;2022-08-19T18:00:00;30.70;;;19.10;;
18072;SDS011;9161;47.348;9.648;2022-08-19T18:04:49;23.17;;;14.90;;
18072;SDS011;9161;47.348;9.648;2022-08-19T18:09:36;24.07;;;15.23;;
18072;SDS011;9161;47.348;9.648;2022-08-19T18:14:30;24.43;;;15.63;;
18072;SDS011;9161;47.348;9.648;2022-08-19T18:19:17;19.93;;;13.13;;
18072;SDS011;9161;47.348;9.648;2022-08-19T18:24:02;18.00;;;12.03;;
18072;SDS011;9161;47.348;9.648;2022-08-19T18:28:48;17.60;;;11.97;;
18072;SDS011;9161;47.348;9.648;2022-08-19T18:33:34;17.03;;;10.87;;
18072;SDS011;9161;47.348;9.648;2022-08-19T18:38:25;13.67;;;8.63;;
18072;SDS011;9161;47.348;9.648;2022-08-19T18:43:32;11.50;;;6.67;;
18072;SDS011;9161;47.348;9.648;2022-08-19T18:48:38;11.37;;;7.07;;
18072;SDS011;9161;47.348;9.648;2022-08-19T18:53:42;17.90;;;10.10;;
18072;SDS011;9161;47.348;9.648;2022-08-19T18:58:31;11.40;;;7.83;;
18072;SDS011;9161;47.348;9.648;2022-08-19T19:03:16;12.50;;;8.23;;
18072;SDS011;9161;47.348;9.648;2022-08-19T19:08:02;10.43;;;7.23;;
18072;SDS011;9161;47.348;9.648;2022-08-19T19:12:51;10.73;;;6.93;;
18072;SDS011;9161;47.348;9.648;2022-08-19T19:17:37;10.47;;;6.90;;
18072;SDS011;9161;47.348;9.648;2022-08-19T19:22:24;10.87;;;7.60;;
18072;SDS011;9161;47.348;9.648;2022-08-19T19:27:12;17.20;;;10.87;;
18072;SDS011;9161;47.348;9.648;2022-08-19T19:32:00;14.83;;;9.67;;
18072;SDS011;9161;47.348;9.648;2022-08-19T19:36:46;14.30;;;8.10;;
18072;SDS011;9161;47.348;9.648;2022-08-19T19:41:32;12.10;;;8.77;;
18072;SDS011;9161;47.348;9.648;2022-08-19T19:46:27;14.87;;;9.83;;
18072;SDS011;9161;47.348;9.648;2022-08-19T19:51:17;14.23;;;8.83;;
18072;SDS011;9161;47.348;9.648;2022-08-19T19:56:25;13.87;;;8.50;;
18072;SDS011;9161;47.348;9.648;2022-08-19T20:01:16;15.90;;;9.83;;
18072;SDS011;9161;47.348;9.648;2022-08-19T20:06:17;42.27;;;23.43;;
18072;SDS011;9161;47.348;9.648;2022-08-19T20:11:05;46.47;;;26.70;;
18072;SDS011;9161;47.348;9.648;2022-08-19T20:15:49;49.83;;;27.87;;
18072;SDS011;9161;47.348;9.648;2022-08-19T20:20:34;39.57;;;21.87;;
18072;SDS011;9161;47.348;9.648;2022-08-19T20:25:20;36.50;;;21.83;;
18072;SDS011;9161;47.348;9.648;2022-08-19T20:30:06;33.50;;;18.77;;
18072;SDS011;9161;47.348;9.648;2022-08-19T20:34:56;23.73;;;14.13;;
18072;SDS011;9161;47.348;9.648;2022-08-19T20:39:41;20.80;;;11.97;;
18072;SDS011;9161;47.348;9.648;2022-08-19T20:44:30;18.90;;;12.20;;
18072;SDS011;9161;47.348;9.648;2022-08-19T20:49:17;21.50;;;11.73;;
18072;SDS011;9161;47.348;9.648;2022-08-19T20:54:02;24.87;;;14.50;;
18072;SDS011;9161;47.348;9.648;2022-08-19T20:58:48;21.50;;;12.57;;
18072;SDS011;9161;47.348;9.648;2022-08-19T21:03:39;29.80;;;16.13;;
18072;SDS011;9161;47.348;9.648;2022-08-19T21:08:26;29.10;;;16.30;;
18072;SDS011;9161;47.348;9.648;2022-08-19T21:13:11;29.90;;;16.07;;
18072;SDS011;9161;47.348;9.648;2022-08-19T21:17:56;27.90;;;15.47;;
18072;SDS011;9161;47.348;9.648;2022-08-19T21:22:44;32.33;;;16.93;;
18072;SDS011;9161;47.348;9.648;2022-08-19T21:27:33;36.00;;;19.83;;
18072;SDS011;9161;47.348;9.648;2022-08-19T21:32:21;39.90;;;20.37;;
18072;SDS011;9161;47.348;9.648;2022-08-19T21:37:06;36.80;;;19.60;;
18072;SDS011;9161;47.348;9.648;2022-08-19T21:42:07;42.70;;;19.73;;
18072;SDS011;9161;47.348;9.648;2022-08-19T21:46:57;40.67;;;20.33;;
18072;SDS011;9161;47.348;9.648;2022-08-19T21:51:41;40.67;;;19.97;;
18072;SDS011;9161;47.348;9.648;2022-08-19T21:56:26;37.77;;;18.80;;
18072;SDS011;9161;47.348;9.648;2022-08-19T22:01:13;32.93;;;16.20;;
18072;SDS011;9161;47.348;9.648;2022-08-19T22:05:58;34.13;;;16.97;;
18072;SDS011;9161;47.348;9.648;2022-08-19T22:10:42;30.30;;;16.67;;
18072;SDS011;9161;47.348;9.648;2022-08-19T22:15:27;29.17;;;15.20;;
18072;SDS011;9161;47.348;9.648;2022-08-19T22:20:13;21.60;;;12.33;;
18072;SDS011;9161;47.348;9.648;2022-08-19T22:25:00;22.23;;;13.17;;
18072;SDS011;9161;47.348;9.648;2022-08-19T22:29:48;21.60;;;12.33;;
18072;SDS011;9161;47.348;9.648;2022-08-19T22:34:34;22.07;;;13.53;;
18072;SDS011;9161;47.348;9.648;2022-08-19T22:39:20;24.23;;;14.77;;
18072;SDS011;9161;47.348;9.648;2022-08-19T22:44:04;27.03;;;15.73;;
18072;SDS011;9161;47.348;9.648;2022-08-19T22:48:48;24.47;;;15.07;;
18072;SDS011;9161;47.348;9.648;2022-08-19T22:53:42;25.67;;;15.30;;
18072;SDS011;9161;47.348;9.648;2022-08-19T22:58:30;27.13;;;16.23;;
18072;SDS011;9161;47.348;9.648;2022-08-19T23:03:16;30.40;;;17.37;;
18072;SDS011;9161;47.348;9.648;2022-08-19T23:08:00;27.93;;;16.27;;
18072;SDS011;9161;47.348;9.648;2022-08-19T23:12:46;32.67;;;17.67;;
18072;SDS011;9161;47.348;9.648;2022-08-19T23:17:31;37.80;;;20.37;;
18072;SDS011;9161;47.348;9.648;2022-08-19T23:22:16;45.77;;;21.97;;
18072;SDS011;9161;47.348;9.648;2022-08-19T23:27:05;38.57;;;20.30;;
18072;SDS011;9161;47.348;9.648;2022-08-19T23:32:06;46.43;;;22.70;;
18072;SDS011;9161;47.348;9.648;2022-08-19T23:36:52;46.90;;;22.83;;
18072;SDS011;9161;47.348;9.648;2022-08-19T23:41:42;45.03;;;23.40;;
18072;SDS011;9161;47.348;9.648;2022-08-19T23:46:26;50.83;;;24.50;;
18072;SDS011;9161;47.348;9.648;2022-08-19T23:51:11;44.90;;;22.50;;
18072;SDS011;9161;47.348;9.648;2022-08-19T23:55:58;47.43;;;22.77;;
